Woodsetts, United Kingdom
Current Conditions -  °F | °C
As of 9:50 AM on Thursday 23 Oct 2014 (Local Time) from EGCN Reporting Station
Broken Clouds Broken Clouds  
Wind Chill: 13°   Ceiling: 2800
Heat Index: 13°   Visibility: 6mi
Dew Point: 11°   Wind: 15mph
Humidity: 88%   Direction: 190°S
Pressure: 30.03"   Gusts: NA
Location:  53.35°N, 1.17°W
Report Text: EGCN 230850Z 19013KT 9999 BKN028 13/11 Q1017
Loading
Personal Weather Stations






























Interactive Weather Map
Tropical Storm Tracking
New forecast layout! Learn more

10-Day Weather Forecast

Advertisements
Track Severe Weather on mobile